Time;durP1;ratioP1;P1;durP2;ratioP2;P2;SDS_P1;SDS_P2;PMS_P1;PMS_P2;Temp;Humidity;BMP_temperature;BMP_pressure;BME280_temperature;BME280_humidity;BME280_pressure;Samples;Min_cycle;Max_cycle;Signal;HPM_P1;HPM_P2
2022/10/13 00:01:25;;;;;;;13.90;7.43;;;;;;;10.66;100.00;101922.59;5067230;28;20183;-74
2022/10/13 00:03:50;;;;;;;12.30;7.53;;;;;;;10.22;100.00;101845.25;5066515;28;20452;-75
2022/10/13 00:06:21;;;;;;;18.20;7.80;;;;;;;10.05;100.00;101823.84;5057260;28;20268;-75
2022/10/13 00:08:47;;;;;;;12.70;7.80;;;;;;;11.03;100.00;101936.19;5049831;28;20196;-74
2022/10/13 00:11:14;;;;;;;16.47;8.20;;;;;;;10.88;100.00;101946.00;5060877;28;20847;-74
2022/10/13 00:13:41;;;;;;;15.90;8.30;;;;;;;10.55;100.00;101897.78;5067533;28;20452;-74
2022/10/13 00:16:07;;;;;;;19.70;8.57;;;;;;;10.03;100.00;101807.09;5064857;28;20441;-74
2022/10/13 00:18:32;;;;;;;18.90;8.50;;;;;;;10.72;100.00;101927.28;5056630;28;20993;-74
2022/10/13 00:20:58;;;;;;;12.23;7.47;;;;;;;10.91;100.00;101936.78;5063973;28;20514;-74
2022/10/13 00:23:23;;;;;;;15.57;8.23;;;;;;;10.30;100.00;101856.81;5066654;28;20241;-74
2022/10/13 00:25:49;;;;;;;20.33;8.70;;;;;;;10.45;100.00;101888.31;5062827;28;20225;-74
2022/10/13 00:28:18;;;;;;;18.43;7.53;;;;;;;10.76;100.00;101940.19;5064229;28;20262;-74
2022/10/13 00:30:44;;;;;;;12.80;8.10;;;;;;;10.79;100.00;101937.16;5062026;28;20434;-74
2022/10/13 00:33:11;;;;;;;21.57;9.23;;;;;;;10.44;100.00;101881.25;5066902;28;20461;-74
2022/10/13 00:35:41;;;;;;;17.00;8.87;;;;;;;10.33;100.00;101864.53;5063455;28;20438;-74
2022/10/13 00:38:07;;;;;;;14.80;8.10;;;;;;;10.21;100.00;101819.44;5066532;28;20485;-75
2022/10/13 00:40:32;;;;;;;17.40;8.60;;;;;;;10.44;100.00;101847.19;5066141;28;21267;-75
2022/10/13 00:42:58;;;;;;;14.73;8.57;;;;;;;10.21;100.00;101844.41;5066159;28;20732;-74
2022/10/13 00:45:25;;;;;;;16.70;8.30;;;;;;;10.73;100.00;101908.31;5062882;28;20260;-73
2022/10/13 00:47:55;;;;;;;12.70;6.90;;;;;;;10.50;100.00;101868.00;5064516;28;20969;-75
2022/10/13 00:50:31;;;;;;;13.00;8.17;;;;;;;9.92;100.00;101802.06;5065982;28;20425;-75
2022/10/13 00:52:58;;;;;;;19.73;9.73;;;;;;;9.66;100.00;101748.72;5066530;28;20925;-75
2022/10/13 00:55:29;;;;;;;14.30;8.30;;;;;;;10.90;100.00;101921.66;5066061;28;20426;-76
2022/10/13 00:57:59;;;;;;;14.20;9.30;;;;;;;10.39;100.00;101885.28;5067024;28;20441;-75
2022/10/13 01:00:25;;;;;;;12.97;7.47;;;;;;;10.67;100.00;101924.25;5062196;28;20429;-75
2022/10/13 01:02:50;;;;;;;16.27;8.63;;;;;;;10.23;100.00;101857.63;5097851;28;20490;-75
2022/10/13 01:05:18;;;;;;;16.50;7.90;;;;;;;10.70;100.00;101919.38;5068492;28;20203;-74
2022/10/13 01:07:47;;;;;;;14.10;8.00;;;;;;;10.61;100.00;101905.16;5062162;28;20215;-75
2022/10/13 01:10:25;;;;;;;18.70;9.23;;;;;;;9.70;100.00;101777.69;5061952;28;21292;-75
2022/10/13 01:12:53;;;;;;;14.90;7.97;;;;;;;10.57;100.00;101925.31;5066867;28;20429;-74
2022/10/13 01:15:31;;;;;;;19.73;9.07;;;;;;;9.96;100.00;101846.31;5061093;28;20429;-75
2022/10/13 01:18:12;;;;;;;21.47;7.63;;;;;;;10.68;100.00;101921.41;5062977;28;20518;-76
2022/10/13 01:20:59;;;;;;;18.07;8.63;;;;;;;10.55;100.00;101902.34;5065434;28;20425;-74
2022/10/13 01:23:49;;;;;;;14.80;9.00;;;;;;;10.53;100.00;101915.94;5067014;28;20424;-75
2022/10/13 01:26:26;;;;;;;21.10;8.93;;;;;;;10.02;100.00;101829.53;5068036;28;20473;-75
2022/10/13 01:29:04;;;;;;;22.53;9.33;;;;;;;10.56;100.00;101906.72;5083234;28;20485;-75
2022/10/13 01:31:46;;;;;;;15.80;8.60;;;;;;;10.46;100.00;101898.84;5062708;28;20444;-74
2022/10/13 01:34:30;;;;;;;17.47;10.20;;;;;;;10.46;100.00;101914.09;5061744;28;20921;-75
2022/10/13 01:37:03;;;;;;;18.03;9.03;;;;;;;9.89;100.00;101821.19;5058695;28;20543;-74
2022/10/13 01:39:37;;;;;;;18.67;9.53;;;;;;;10.07;100.00;101853.16;5062115;28;20794;-75
2022/10/13 01:42:12;;;;;;;18.63;9.63;;;;;;;9.77;100.00;101766.28;5065372;28;20524;-75
2022/10/13 01:44:42;;;;;;;16.13;8.83;;;;;;;9.85;100.00;101780.50;5061052;28;20839;-75
2022/10/13 01:47:10;;;;;;;14.20;8.33;;;;;;;9.81;100.00;101741.66;5063495;28;20555;-74
2022/10/13 01:49:37;;;;;;;17.10;8.10;;;;;;;10.12;100.00;101798.00;5063004;28;20445;-75
2022/10/13 01:52:11;;;;;;;18.80;9.03;;;;;;;9.90;100.00;101794.22;5065075;28;20452;-75
2022/10/13 01:54:36;;;;;;;17.70;9.17;;;;;;;10.06;100.00;101820.13;5061926;28;20438;-75
2022/10/13 01:57:01;;;;;;;16.90;9.77;;;;;;;9.43;100.00;101719.13;5064541;28;20488;-74
2022/10/13 01:59:32;;;;;;;18.27;9.70;;;;;;;10.50;100.00;101865.31;5057326;28;20617;-74
2022/10/13 02:02:25;;;;;;;18.23;10.67;;;;;;;10.42;100.00;101859.13;5061785;28;20464;-75
2022/10/13 02:05:09;;;;;;;17.97;10.53;;;;;;;10.48;100.00;101858.44;5062294;28;20881;-75
2022/10/13 02:07:46;;;;;;;20.30;11.17;;;;;;;9.21;100.00;101688.53;5067795;23;20716;-84
2022/10/13 02:10:15;;;;;;;16.70;9.80;;;;;;;10.46;100.00;101855.09;5034443;28;20441;-85
2022/10/13 02:12:54;;;;;;;16.37;9.60;;;;;;;7.84;100.00;101416.50;5038022;28;20503;-85
2022/10/13 02:15:27;;;;;;;15.60;8.40;;;;;;;9.74;100.00;101752.22;5052214;28;20476;-83
2022/10/13 02:17:54;;;;;;;15.00;9.63;;;;;;;8.74;100.00;101609.81;5033407;28;20580;-86
2022/10/13 02:20:20;;;;;;;14.80;9.37;;;;;;;9.05;100.00;101686.69;5040613;28;20969;-86
2022/10/13 02:22:50;;;;;;;16.50;9.73;;;;;;;8.63;100.00;101594.09;5052413;28;20447;-84
2022/10/13 02:25:16;;;;;;;17.23;9.90;;;;;;;10.32;100.00;101846.75;5038559;28;20630;-83
2022/10/13 02:27:41;;;;;;;19.27;10.23;;;;;;;9.24;100.00;101681.00;5037466;28;21032;-85
2022/10/13 02:30:08;;;;;;;19.13;11.10;;;;;;;9.69;100.00;101727.81;5037637;28;20187;-85
2022/10/13 02:32:34;;;;;;;17.90;10.20;;;;;;;9.03;100.00;101646.75;5039502;28;20195;-84
2022/10/13 02:34:59;;;;;;;13.97;9.33;;;;;;;8.69;100.00;101619.34;5038215;28;20985;-83
2022/10/13 02:37:25;;;;;;;17.50;9.27;;;;;;;8.13;100.00;101525.56;5036417;28;20392;-84
2022/10/13 02:39:51;;;;;;;15.97;8.70;;;;;;;9.07;100.00;101667.81;5039913;28;20226;-84
2022/10/13 02:42:16;;;;;;;16.10;10.03;;;;;;;9.66;100.00;101721.94;5040768;28;20705;-84
2022/10/13 02:44:45;;;;;;;14.40;8.80;;;;;;;8.68;100.00;101561.47;5038333;28;20207;-85
2022/10/13 02:47:14;;;;;;;20.87;10.77;;;;;;;8.77;100.00;101616.66;5040721;28;20195;-85
2022/10/13 02:49:39;;;;;;;16.20;10.17;;;;;;;9.28;100.00;101650.19;5038703;28;20453;-87
2022/10/13 02:52:05;;;;;;;15.40;10.20;;;;;;;9.18;100.00;101672.81;5038280;28;20446;-83
2022/10/13 02:54:33;;;;;;;14.50;8.90;;;;;;;8.07;100.00;101460.25;5035435;28;20636;-84
2022/10/13 02:56:59;;;;;;;16.83;9.90;;;;;;;9.64;100.00;101718.59;5038299;28;20192;-83
2022/10/13 02:59:24;;;;;;;18.63;9.20;;;;;;;8.26;100.00;101533.06;5041472;28;20466;-80
2022/10/13 03:01:50;;;;;;;13.90;9.40;;;;;;;8.91;100.00;101610.66;5041815;28;20247;-86
2022/10/13 03:04:16;;;;;;;16.30;10.23;;;;;;;10.00;100.00;101764.53;5039472;28;20268;-84
2022/10/13 03:06:41;;;;;;;13.50;9.10;;;;;;;9.50;100.00;101678.09;5040700;28;20189;-86
2022/10/13 03:09:07;;;;;;;17.73;10.10;;;;;;;9.82;100.00;101761.25;5041868;28;20301;-87
2022/10/13 03:11:33;;;;;;;15.30;9.50;;;;;;;8.72;100.00;101570.84;5041084;28;20221;-85
2022/10/13 03:13:59;;;;;;;17.33;10.03;;;;;;;9.17;100.00;101685.38;5039113;28;20204;-86
2022/10/13 03:16:27;;;;;;;17.87;10.43;;;;;;;8.13;100.00;101498.84;5040010;28;20537;-85
2022/10/13 03:18:55;;;;;;;16.67;9.20;;;;;;;9.53;100.00;101727.00;5044235;28;20461;-86
2022/10/13 03:21:21;;;;;;;14.87;9.83;;;;;;;8.25;100.00;101484.13;5042290;28;20438;-85
2022/10/13 03:23:46;;;;;;;15.90;9.00;;;;;;;9.70;100.00;101725.94;5043182;28;20444;-84
2022/10/13 03:26:12;;;;;;;16.73;9.37;;;;;;;8.85;100.00;101571.16;5040832;28;20302;-86
2022/10/13 03:28:37;;;;;;;16.20;9.53;;;;;;;7.35;100.00;101326.56;5041397;28;20274;-85
2022/10/13 03:31:05;;;;;;;19.93;9.43;;;;;;;9.36;100.00;101677.97;5042627;28;20188;-85
2022/10/13 03:33:31;;;;;;;15.67;8.67;;;;;;;8.74;100.00;101587.59;5049364;28;20702;-85
2022/10/13 03:36:01;;;;;;;21.80;11.27;;;;;;;8.04;100.00;101546.09;5042442;28;20517;-83
2022/10/13 03:38:31;;;;;;;21.30;11.13;;;;;;;8.02;100.00;101508.00;5043950;28;20443;-83
2022/10/13 03:40:56;;;;;;;17.47;10.70;;;;;;;9.06;100.00;101688.41;5041176;28;20472;-83
2022/10/13 03:43:23;;;;;;;16.03;10.53;;;;;;;8.64;100.00;101577.03;5039736;28;20513;-86
2022/10/13 03:45:59;;;;;;;17.87;11.10;;;;;;;9.12;100.00;101658.28;5044204;28;20207;-85
2022/10/13 03:48:25;;;;;;;20.93;11.30;;;;;;;9.11;100.00;101661.09;5043904;28;20453;-85
2022/10/13 03:50:50;;;;;;;18.10;10.80;;;;;;;7.24;100.00;101397.06;5045027;28;20799;-84
2022/10/13 03:53:16;;;;;;;18.30;10.17;;;;;;;7.91;100.00;101517.16;5044278;28;20513;-85
2022/10/13 03:55:47;;;;;;;21.93;11.00;;;;;;;8.13;100.00;101509.53;5042276;28;20183;-84
2022/10/13 03:58:12;;;;;;;18.10;10.20;;;;;;;10.19;100.00;101819.63;5046086;28;20781;-83
2022/10/13 04:00:40;;;;;;;20.23;11.10;;;;;;;9.24;100.00;101678.31;5052812;28;20471;-84
2022/10/13 04:03:08;;;;;;;18.63;11.60;;;;;;;9.01;100.00;101621.16;5063352;28;20184;-85
2022/10/13 04:05:37;;;;;;;17.43;10.50;;;;;;;9.39;100.00;101699.06;5061228;28;20474;-83
2022/10/13 04:08:03;;;;;;;14.37;9.73;;;;;;;9.62;100.00;101739.34;5053394;28;20454;-83
2022/10/13 04:10:28;;;;;;;19.33;9.70;;;;;;;8.57;100.00;101566.19;5039668;28;20547;-83
2022/10/13 04:12:54;;;;;;;13.33;8.47;;;;;;;9.40;100.00;101695.38;5040811;28;20441;-85
2022/10/13 04:15:20;;;;;;;15.83;10.10;;;;;;;8.70;100.00;101604.94;5041217;28;20184;-86
2022/10/13 04:17:45;;;;;;;17.17;9.90;;;;;;;7.40;100.00;101363.41;5035778;28;20195;-82
2022/10/13 04:20:11;;;;;;;17.87;11.00;;;;;;;8.88;100.00;101636.88;5041295;28;20189;-85
2022/10/13 04:22:36;;;;;;;12.73;9.83;;;;;;;8.45;100.00;101510.56;5040895;28;20218;-84
2022/10/13 04:25:05;;;;;;;15.33;10.70;;;;;;;9.69;100.00;101706.38;5039566;28;20225;-85
2022/10/13 04:27:31;;;;;;;22.50;11.37;;;;;;;9.32;100.00;101687.38;5035529;28;20219;-85
2022/10/13 04:29:57;;;;;;;17.77;10.73;;;;;;;10.12;100.00;101821.31;5041430;28;20521;-78
2022/10/13 04:32:22;;;;;;;16.83;11.53;;;;;;;8.86;100.00;101580.03;5033968;28;20251;-85
2022/10/13 04:34:48;;;;;;;15.80;11.30;;;;;;;8.76;100.00;101569.50;5036500;28;20266;-84
2022/10/13 04:37:14;;;;;;;18.80;11.60;;;;;;;8.46;100.00;101509.53;5042292;28;20207;-83
2022/10/13 04:39:39;;;;;;;19.00;11.87;;;;;;;8.62;100.00;101551.47;5029082;28;20183;-85
2022/10/13 04:42:05;;;;;;;25.30;11.73;;;;;;;8.11;100.00;101512.34;5031929;28;20238;-83
2022/10/13 04:44:30;;;;;;;15.43;11.73;;;;;;;7.76;100.00;101413.84;5039896;28;21052;-83
2022/10/13 04:46:56;;;;;;;15.37;10.20;;;;;;;8.29;100.00;101520.19;5044533;28;20184;-84
2022/10/13 04:49:23;;;;;;;24.03;13.20;;;;;;;9.20;100.00;101670.78;5042480;28;20199;-82
2022/10/13 04:51:49;;;;;;;26.40;12.93;;;;;;;8.71;100.00;101604.81;5041430;28;20435;-83
2022/10/13 04:54:14;;;;;;;15.97;10.70;;;;;;;8.18;100.00;101483.13;5031360;28;20442;-82
2022/10/13 04:56:42;;;;;;;15.10;11.20;;;;;;;8.24;100.00;101514.50;5031500;28;20438;-81
2022/10/13 04:59:08;;;;;;;17.93;11.93;;;;;;;7.69;100.00;101453.69;5032760;28;20267;-81
2022/10/13 05:01:34;;;;;;;23.17;11.50;;;;;;;7.75;100.00;101423.66;5035990;28;20991;-79
2022/10/13 05:04:02;;;;;;;20.77;12.17;;;;;;;8.55;100.00;101575.38;5035420;28;20524;-78
2022/10/13 05:06:30;;;;;;;15.90;10.13;;;;;;;9.27;100.00;101640.50;5041223;28;20458;-78
2022/10/13 05:08:56;;;;;;;13.73;10.50;;;;;;;7.91;100.00;101406.81;5036080;28;20466;-76
2022/10/13 05:11:23;;;;;;;13.30;10.30;;;;;;;8.36;100.00;101473.09;5039965;28;20470;-79
2022/10/13 05:13:49;;;;;;;14.50;10.73;;;;;;;8.67;100.00;101533.91;5039240;28;20530;-79
2022/10/13 05:16:16;;;;;;;21.50;11.60;;;;;;;8.38;100.00;101503.19;5016828;28;20508;-79
2022/10/13 05:18:42;;;;;;;19.60;11.97;;;;;;;8.97;100.00;101577.84;5036849;28;20462;-78
2022/10/13 05:21:13;;;;;;;18.93;12.07;;;;;;;9.91;100.00;101774.44;5039458;28;20814;-78
2022/10/13 05:23:40;;;;;;;22.70;12.93;;;;;;;8.64;100.00;101613.66;5036132;28;20473;-78
2022/10/13 05:26:10;;;;;;;17.87;12.67;;;;;;;8.09;100.00;101466.25;5037797;28;20528;-78
2022/10/13 05:28:35;;;;;;;15.40;11.07;;;;;;;7.98;100.00;101436.38;5037520;28;20465;-78
2022/10/13 05:31:16;;;;;;;18.43;11.80;;;;;;;9.15;100.00;101633.03;5036615;28;20503;-78
2022/10/13 05:33:43;;;;;;;17.60;11.17;;;;;;;7.89;100.00;101427.50;5020647;28;20191;-79
2022/10/13 05:36:15;;;;;;;16.00;11.57;;;;;;;9.00;100.00;101614.97;5039336;28;20434;-78
2022/10/13 05:38:41;;;;;;;18.50;12.93;;;;;;;8.47;100.00;101548.63;5039439;28;21534;-78
2022/10/13 05:41:09;;;;;;;18.30;11.87;;;;;;;7.88;100.00;101436.53;5037236;28;20881;-78
2022/10/13 05:43:36;;;;;;;18.80;11.90;;;;;;;8.80;100.00;101594.94;5022150;28;21238;-78
2022/10/13 05:46:02;;;;;;;19.70;11.27;;;;;;;8.72;100.00;101622.50;5017410;28;20473;-77
2022/10/13 05:48:36;;;;;;;18.10;12.20;;;;;;;9.03;100.00;101676.19;5037446;28;20468;-75
2022/10/13 05:51:11;;;;;;;17.23;12.37;;;;;;;8.49;100.00;101613.47;5038527;28;20437;-77
2022/10/13 05:53:39;;;;;;;23.00;11.87;;;;;;;8.12;100.00;101543.41;5038452;28;20437;-77
2022/10/13 05:56:10;;;;;;;17.13;12.30;;;;;;;10.03;100.00;101814.28;5036386;28;20452;-76
2022/10/13 05:58:44;;;;;;;18.30;12.73;;;;;;;8.91;100.00;101633.84;5041848;28;20548;-78
2022/10/13 06:01:16;;;;;;;18.13;12.90;;;;;;;8.94;100.00;101674.53;5028805;28;20446;-76
2022/10/13 06:03:42;;;;;;;19.80;12.60;;;;;;;9.89;100.00;101780.97;5005837;28;20858;-77
2022/10/13 06:06:08;;;;;;;18.80;13.20;;;;;;;8.97;100.00;101633.22;5039354;28;20473;-77
2022/10/13 06:08:35;;;;;;;20.23;12.17;;;;;;;8.30;100.00;101515.69;5040251;28;20963;-76
2022/10/13 06:11:02;;;;;;;18.17;13.63;;;;;;;8.65;100.00;101605.47;5039414;28;20580;-77
2022/10/13 06:13:27;;;;;;;22.40;15.07;;;;;;;7.05;100.00;101337.84;5038584;28;20445;-76
2022/10/13 06:15:53;;;;;;;25.47;14.13;;;;;;;7.36;100.00;101402.94;5038076;28;20799;-77
2022/10/13 06:18:18;;;;;;;18.70;13.57;;;;;;;7.56;100.00;101416.00;5043458;28;20204;-77
2022/10/13 06:20:44;;;;;;;23.23;15.07;;;;;;;7.57;100.00;101423.00;5041808;28;20211;-80
2022/10/13 06:23:09;;;;;;;23.43;14.13;;;;;;;9.88;100.00;101769.44;5040628;28;20184;-77
2022/10/13 06:25:35;;;;;;;23.30;13.97;;;;;;;7.15;100.00;101350.03;5038661;28;20595;-78
2022/10/13 06:28:01;;;;;;;19.03;13.70;;;;;;;8.11;100.00;101532.91;5040536;28;21208;-78
2022/10/13 06:30:27;;;;;;;25.23;13.50;;;;;;;8.76;100.00;101591.72;5041178;28;20187;-77
2022/10/13 06:32:54;;;;;;;21.47;14.63;;;;;;;8.60;100.00;101563.19;5038439;28;20176;-75
2022/10/13 06:35:22;;;;;;;22.67;14.83;;;;;;;8.93;100.00;101653.25;5038873;28;20187;-77
2022/10/13 06:37:49;;;;;;;25.60;15.07;;;;;;;8.14;100.00;101516.53;5039782;28;20483;-77
2022/10/13 06:40:15;;;;;;;20.43;13.60;;;;;;;7.61;100.00;101448.38;5040466;28;20430;-77
2022/10/13 06:42:40;;;;;;;20.30;13.30;;;;;;;7.28;100.00;101328.19;5034243;28;20566;-77
2022/10/13 06:45:06;;;;;;;19.73;13.87;;;;;;;7.34;100.00;101345.38;5035815;28;20546;-76
2022/10/13 06:47:31;;;;;;;22.43;14.30;;;;;;;9.86;100.00;101765.25;5041905;28;20395;-77
2022/10/13 06:49:57;;;;;;;20.67;14.23;;;;;;;7.99;100.00;101494.16;5038465;28;20455;-78
2022/10/13 06:52:23;;;;;;;19.90;13.80;;;;;;;9.89;100.00;101776.50;5039138;28;20245;-78
2022/10/13 06:54:48;;;;;;;23.13;14.10;;;;;;;8.85;100.00;101653.25;5039010;28;20660;-77
2022/10/13 06:57:13;;;;;;;21.93;14.47;;;;;;;8.76;100.00;101621.16;5041846;28;20719;-78
2022/10/13 06:59:39;;;;;;;19.20;14.67;;;;;;;7.50;100.00;101432.66;5037215;28;20194;-76
2022/10/13 07:02:04;;;;;;;33.73;15.50;;;;;;;9.15;100.00;101694.56;5039523;28;20195;-77
2022/10/13 07:04:30;;;;;;;18.70;14.27;;;;;;;6.96;100.00;101366.31;5038996;28;20562;-77
2022/10/13 07:06:55;;;;;;;20.33;14.37;;;;;;;9.73;100.00;101822.88;5038381;28;20257;-79
2022/10/13 07:09:21;;;;;;;23.27;14.87;;;;;;;7.34;100.00;101391.56;5039334;28;20222;-77
2022/10/13 07:11:48;;;;;;;20.87;14.70;;;;;;;7.78;100.00;101444.72;5038947;28;20179;-76
2022/10/13 07:14:13;;;;;;;21.83;15.37;;;;;;;8.15;100.00;101507.50;5035281;28;22707;-75
2022/10/13 07:16:40;;;;;;;19.30;15.10;;;;;;;8.54;100.00;101541.63;5036483;28;20469;-78
2022/10/13 07:19:05;;;;;;;21.80;15.10;;;;;;;8.77;100.00;101563.16;5035398;28;20892;-75
2022/10/13 07:21:31;;;;;;;19.53;14.60;;;;;;;9.15;100.00;101623.13;5041106;28;20465;-77
2022/10/13 07:23:56;;;;;;;22.90;16.03;;;;;;;7.32;100.00;101374.06;5037349;28;20184;-79
2022/10/13 07:26:22;;;;;;;23.50;15.90;;;;;;;8.67;100.00;101547.28;5039013;28;20203;-76
2022/10/13 07:28:48;;;;;;;21.40;15.00;;;;;;;9.97;100.00;101727.38;5039019;28;20210;-78
2022/10/13 07:31:17;;;;;;;21.20;15.27;;;;;;;10.12;100.00;101717.56;5038148;28;20216;-75
2022/10/13 07:33:45;;;;;;;23.93;16.67;;;;;;;8.04;100.00;101417.84;5038787;28;20183;-77
2022/10/13 07:36:12;;;;;;;22.87;16.40;;;;;;;8.55;100.00;101503.19;5038294;28;20481;-75
2022/10/13 07:38:38;;;;;;;21.40;15.27;;;;;;;7.74;100.00;101346.41;5038762;28;20447;-77
2022/10/13 07:41:05;;;;;;;23.03;16.83;;;;;;;8.54;100.00;101470.25;5040332;28;20469;-77
2022/10/13 07:43:31;;;;;;;25.23;16.27;;;;;;;8.11;100.00;101388.63;5039586;28;20457;-78
2022/10/13 07:46:03;;;;;;;24.00;15.73;;;;;;;9.50;100.00;101595.09;5037365;28;20506;-77
2022/10/13 07:48:29;;;;;;;21.53;17.03;;;;;;;9.63;100.00;101637.41;5043862;28;20747;-78
2022/10/13 07:50:55;;;;;;;22.03;16.90;;;;;;;9.75;100.00;101627.16;5042610;28;20509;-75
2022/10/13 07:53:21;;;;;;;23.43;15.90;;;;;;;9.25;100.00;101556.84;5041571;28;20456;-77
2022/10/13 07:55:47;;;;;;;20.37;15.13;;;;;;;10.67;100.00;101760.59;5041536;28;20813;-78
2022/10/13 07:58:13;;;;;;;21.90;16.23;;;;;;;9.76;100.00;101642.22;5038565;28;20462;-78
2022/10/13 08:00:38;;;;;;;19.90;14.13;;;;;;;8.60;100.00;101423.28;5044526;28;20180;-77
2022/10/13 08:03:04;;;;;;;23.83;15.33;;;;;;;9.65;100.00;101605.06;5039929;28;20171;-80
2022/10/13 08:05:29;;;;;;;22.50;15.30;;;;;;;9.04;100.00;101503.06;5041045;28;20246;-77
2022/10/13 08:10:28;;;;;;;23.97;17.10;;;;;;;9.33;100.00;101579.25;5058425;28;20219;-76
2022/10/13 08:12:53;;;;;;;24.83;17.10;;;;;;;9.78;100.00;101661.63;5083995;28;20433;-77
2022/10/13 08:15:19;;;;;;;21.60;15.43;;;;;;;9.40;100.00;101599.84;5065248;28;20433;-79
2022/10/13 08:17:44;;;;;;;25.47;15.87;;;;;;;9.31;100.00;101568.72;5069650;28;20187;-79
2022/10/13 08:20:10;;;;;;;21.17;14.33;;;;;;;8.87;100.00;101494.25;5063838;28;20227;-78
2022/10/13 08:22:35;;;;;;;26.20;17.20;;;;;;;8.52;100.00;101415.28;5063176;28;20507;-79
2022/10/13 08:25:01;;;;;;;17.80;14.20;;;;;;;8.51;100.00;101398.41;5061376;28;20207;-78
2022/10/13 08:27:27;;;;;;;22.27;16.00;;;;;;;9.68;100.00;101643.06;5068993;28;20741;-79
2022/10/13 08:29:53;;;;;;;23.77;15.30;;;;;;;8.30;100.00;101393.59;5063113;28;20199;-78
2022/10/13 08:32:20;;;;;;;32.83;16.40;;;;;;;9.04;100.00;101487.84;5061645;28;20428;-75
2022/10/13 08:34:46;;;;;;;19.77;15.30;;;;;;;9.53;100.00;101583.19;5068246;28;20457;-78
2022/10/13 08:37:13;;;;;;;20.63;15.90;;;;;;;8.96;100.00;101470.97;5061758;28;20426;-79
2022/10/13 08:39:39;;;;;;;19.80;15.23;;;;;;;9.58;100.00;101558.59;5063834;28;20453;-78
2022/10/13 08:42:21;;;;;;;21.53;14.73;;;;;;;10.16;100.00;101657.25;5063275;28;20479;-77
2022/10/13 08:44:49;;;;;;;20.90;14.30;;;;;;;10.74;100.00;101758.88;5077184;28;20196;-77
2022/10/13 08:47:29;;;;;;;19.30;13.40;;;;;;;9.29;100.00;101535.94;5063882;28;20453;-78
2022/10/13 08:49:58;;;;;;;24.17;16.83;;;;;;;9.61;100.00;101568.94;5060836;28;20487;-78
2022/10/13 08:52:26;;;;;;;19.40;14.67;;;;;;;10.06;100.00;101642.41;5066758;28;20480;-79
2022/10/13 08:54:54;;;;;;;20.50;14.73;;;;;;;10.23;100.00;101651.19;5064246;28;20887;-79
2022/10/13 08:57:20;;;;;;;20.43;15.80;;;;;;;10.61;100.00;101697.75;5066305;28;20429;-78
2022/10/13 08:59:46;;;;;;;20.27;15.20;;;;;;;9.24;100.00;101463.34;5059980;28;20542;-79
2022/10/13 09:02:30;;;;;;;25.83;16.47;;;;;;;10.45;100.00;101630.81;5067590;28;20417;-78
2022/10/13 09:04:58;;;;;;;22.67;15.40;;;;;;;10.61;100.00;101669.06;5062426;28;20466;-79
2022/10/13 09:07:27;;;;;;;23.70;16.27;;;;;;;10.52;100.00;101629.91;5061419;28;20838;-78
2022/10/13 09:09:54;;;;;;;23.97;14.90;;;;;;;10.68;100.00;101668.38;5063812;28;20894;-79
2022/10/13 09:12:23;;;;;;;20.10;15.37;;;;;;;9.12;100.00;101387.13;5065420;28;20426;-79
2022/10/13 09:15:06;;;;;;;24.50;15.90;;;;;;;9.42;100.00;101447.00;5062564;28;20505;-80
2022/10/13 09:17:33;;;;;;;21.57;16.40;;;;;;;9.49;100.00;101474.78;5067505;28;20433;-77
2022/10/13 09:20:17;;;;;;;25.03;18.07;;;;;;;11.04;100.00;101722.25;5062332;28;20445;-79
2022/10/13 09:22:44;;;;;;;24.37;17.87;;;;;;;10.25;100.00;101609.78;5076088;28;20933;-79
2022/10/13 09:25:15;;;;;;;19.30;14.57;;;;;;;8.94;100.00;101348.09;5063103;28;20473;-80
2022/10/13 09:27:59;;;;;;;23.37;15.97;;;;;;;9.93;100.00;101503.63;5062341;28;20417;-78
2022/10/13 09:30:31;;;;;;;22.83;15.23;;;;;;;11.23;100.00;101731.66;5058824;28;20430;-79
2022/10/13 09:33:11;;;;;;;20.13;16.10;;;;;;;11.42;100.00;101731.13;5057637;28;20959;-78
2022/10/13 09:35:39;;;;;;;25.67;16.80;;;;;;;9.64;100.00;101450.75;5062323;28;21032;-78
2022/10/13 09:38:09;;;;;;;24.90;16.70;;;;;;;10.68;100.00;101614.72;5058860;28;20850;-78
2022/10/13 09:40:35;;;;;;;23.40;16.60;;;;;;;9.83;100.00;101495.78;5061103;28;20937;-79
2022/10/13 09:43:13;;;;;;;23.27;16.30;;;;;;;11.19;100.00;101719.59;5060001;28;20990;-77
2022/10/13 09:45:42;;;;;;;22.73;16.60;;;;;;;9.46;100.00;101437.63;5062136;28;20462;-78
2022/10/13 09:48:22;;;;;;;22.37;17.30;;;;;;;9.19;100.00;101351.44;5059651;28;20475;-79
2022/10/13 09:50:50;;;;;;;21.30;15.40;;;;;;;10.77;100.00;101602.88;5061274;28;20425;-78
2022/10/13 09:53:36;;;;;;;23.33;16.20;;;;;;;10.39;100.00;101543.84;5064066;28;20434;-78
2022/10/13 09:56:13;;;;;;;25.13;17.57;;;;;;;11.59;100.00;101742.56;5059371;28;20429;-78
2022/10/13 09:58:47;;;;;;;22.10;17.03;;;;;;;10.91;100.00;101653.09;5063146;28;20455;-79
2022/10/13 10:01:23;;;;;;;27.67;18.57;;;;;;;10.44;100.00;101587.03;5060493;28;20434;-76
2022/10/13 10:03:50;;;;;;;24.30;17.33;;;;;;;9.74;100.00;101472.75;5060069;28;20429;-79
2022/10/13 10:06:17;;;;;;;26.67;17.50;;;;;;;11.09;100.00;101660.81;5061988;28;20522;-79
2022/10/13 10:08:56;;;;;;;22.90;17.83;;;;;;;9.76;100.00;101445.81;5063745;28;20489;-82
2022/10/13 10:11:36;;;;;;;26.50;17.00;;;;;;;10.19;100.00;101528.22;5060149;28;20421;-78
2022/10/13 10:14:29;;;;;;;22.73;15.93;;;;;;;10.32;100.00;101526.81;5060984;28;20421;-79
2022/10/13 10:17:24;;;;;;;28.50;17.13;;;;;;;11.71;100.00;101743.78;5059730;28;20427;-79
2022/10/13 10:19:50;;;;;;;24.13;17.53;;;;;;;11.75;100.00;101747.78;5059433;28;20480;-78
2022/10/13 10:22:30;;;;;;;20.30;16.60;;;;;;;11.82;100.00;101738.97;5059769;28;20914;-79
2022/10/13 10:24:58;;;;;;;24.67;17.07;;;;;;;11.86;100.00;101740.28;5061091;28;20207;-80
2022/10/13 10:27:39;;;;;;;26.13;17.73;;;;;;;10.24;100.00;101474.06;5059800;28;20425;-81
2022/10/13 10:30:15;;;;;;;27.23;18.37;;;;;;;10.04;100.00;101467.50;5061230;28;20466;-76
2022/10/13 10:32:59;;;;;;;24.47;17.10;;;;;;;11.86;100.00;101732.22;5060607;28;20432;-77
2022/10/13 10:36:03;;;;;;;20.77;16.80;;;;;;;11.86;100.00;101727.72;5061073;28;20414;-79
2022/10/13 10:38:53;;;;;;;23.00;17.77;;;;;;;11.96;100.00;101722.03;5051200;28;20453;-78
2022/10/13 10:42:02;;;;;;;23.63;17.40;;;;;;;11.36;100.00;101618.22;5057848;28;20586;-79
2022/10/13 10:44:39;;;;;;;26.60;18.20;;;;;;;10.35;100.00;101476.31;5059885;28;21043;-80
2022/10/13 10:47:11;;;;;;;22.40;16.20;;;;;;;10.77;100.00;101498.22;5060622;28;20810;-81
2022/10/13 10:49:40;;;;;;;23.90;17.07;;;;;;;10.33;100.00;101456.09;5058978;28;20442;-79
2022/10/13 10:52:14;;;;;;;21.33;15.83;;;;;;;10.29;100.00;101401.97;5059169;28;20422;-79
2022/10/13 10:54:47;;;;;;;22.20;18.10;;;;;;;10.56;100.00;101453.34;5064641;28;20443;-80
2022/10/13 10:58:04;;;;;;;24.37;18.23;;;;;;;10.97;100.00;101520.81;5061239;28;20452;-79
2022/10/13 11:00:43;;;;;;;27.57;19.00;;;;;;;10.59;100.00;101464.53;5045924;28;20434;-80
2022/10/13 11:03:21;;;;;;;27.87;18.30;;;;;;;10.63;100.00;101499.88;5075522;28;20446;-79
2022/10/13 11:05:56;;;;;;;27.53;19.33;;;;;;;12.18;100.00;101731.03;5055124;28;20523;-79
2022/10/13 11:08:28;;;;;;;28.23;19.77;;;;;;;10.23;100.00;101418.75;5060577;28;20448;-79
2022/10/13 11:11:19;;;;;;;24.80;18.47;;;;;;;12.13;100.00;101722.69;5054158;28;20570;-79
2022/10/13 11:13:54;;;;;;;23.70;18.63;;;;;;;10.92;100.00;101555.44;5061104;28;20946;-80
2022/10/13 11:16:32;;;;;;;26.63;19.67;;;;;;;10.95;100.00;101546.19;5060816;28;20492;-79
2022/10/13 11:19:06;;;;;;;21.83;15.83;;;;;;;12.26;100.00;101716.63;5058552;28;20444;-80
2022/10/13 11:21:54;;;;;;;23.20;18.07;;;;;;;12.28;100.00;101711.91;5066508;28;20433;-79
2022/10/13 11:24:48;;;;;;;23.70;19.73;;;;;;;12.30;100.00;101705.31;5063821;28;20420;-80